메인 페이지
METAR-TAF:

METAR-TAF

공항 :

크라이스트처치 국제공항

크라이스트처치, 뉴질랜드

위도: 43-29S, 경도: 172-33E, 고도: 38m

현재 날씨관측

예보는 11분 전, 16:30시(UTC)에 발표되었습니다.
북동6kt
온도 4°C
습도 100%
기압 998 hPa
시정 10km 이상

METAR: NZCH 151630Z AUTO 05006KT 9999 NCD 04/04 Q0998 TEMPO 2000 BR

시각: 04:41 (16:41 UTC)

예보

예보는 4 시간 47분 전, 11:54시(UTC)에 발표되었습니다.
예보 대상 시간: 15일 12시부터 16일 12시까지 (UTC)
북동5kt
시정 10km 이상
고도 800ft 상공 구름 보통
일시적
15일 12시부터 15일 15시까지 (UTC)
고도 800ft 상공 구름 많음
확률 30%
15일 15시부터 15일 19시까지 (UTC)
시정: 2000m
박무
전환 중
15일 21시부터 15일 23시까지 (UTC)
북북동15kt
전환 중
16일 07시부터 16일 09시까지 (UTC)
북서5kt

TAF: NZCH 151154Z 1512/1612 05005KT 9999 SCT008 TEMPO 1512/1515 BKN008 PROB30 1515/1519 2000 BR BECMG 1521/1523 03015KT BECMG 1607/1609 32005KT

4,000개 이상의 공항 관측 자료 및 예보 (METAR 및 TAF 보고).

지도상에서 검색 가능한 기상관측소가 노란 점과 빨간 점으로 표시되어 있습니다.

기상관측소 명을 보려면 표시 위로 마우스를 이동하세요.

날씨 관측과 예보를 보려면 클릭하세요.

지도 변경 : 확대하려면 엑스 표시가 있는 녹색 버튼, 축소하려면 빼기 표시가 있는 녹색 버튼, 다음 페이지의 지도를 보려면 녹색 화살표를 클릭하세요.


METAR-TAF: